Time,TemperatureF,DewpointF,PressureIn,WindDirection,WindDirectionDegrees,WindSpeedMPH,WindSpeedGustMPH,Humidity,HourlyPrecipIn,Conditions,Clouds,dailyrainin,SoftwareType,DateUTC
2013-01-03 00:05:00,19.9,17.0,30.25,SE,127,0.0,0.0,87,0.00,,,0.00,weatherlink.com 1.10,2013-01-03 06:05:00,
2013-01-03 00:20:00,19.7,17.0,30.25,SE,127,0.0,0.0,88,0.00,,,0.00,weatherlink.com 1.10,2013-01-03 06:20:00,
2013-01-03 00:35:00,19.3,16.0,30.25,SE,127,0.0,0.0,88,0.00,,,0.00,weatherlink.com 1.10,2013-01-03 06:35:00,
2013-01-03 00:50:00,19.2,17.0,30.24,SE,127,0.0,0.0,89,0.00,,,0.00,weatherlink.com 1.10,2013-01-03 06:50:00,
2013-01-03 01:05:00,19.5,17.0,30.24,SE,127,0.0,1.0,90,0.00,,,0.00,weatherlink.com 1.10,2013-01-03 07:05:00,
2013-01-03 01:20:00,21.3,18.0,30.26,WNW,299,0.0,5.0,85,0.00,,,0.00,weatherlink.com 1.10,2013-01-03 07:20:00,
2013-01-03 01:35:00,21.1,17.0,30.26,WNW,299,0.0,1.0,85,0.00,,,0.00,weatherlink.com 1.10,2013-01-03 07:35:00,
2013-01-03 01:50:00,21.0,17.0,30.26,WNW,299,0.0,0.0,85,0.00,,,0.00,weatherlink.com 1.10,2013-01-03 07:50:00,
2013-01-03 02:05:00,20.9,17.0,30.25,WNW,299,2.0,2.0,85,0.00,,,0.00,weatherlink.com 1.10,2013-01-03 08:05:00,
2013-01-03 02:20:00,21.2,17.0,30.26,WNW,299,0.0,1.0,84,0.00,,,0.00,weatherlink.com 1.10,2013-01-03 08:20:00,
2013-01-03 02:35:00,21.3,17.0,30.26,WNW,299,1.0,2.0,84,0.00,,,0.00,weatherlink.com 1.10,2013-01-03 08:35:00,
2013-01-03 02:50:00,21.5,17.0,30.26,WNW,297,0.0,3.0,84,0.00,,,0.00,weatherlink.com 1.10,2013-01-03 08:50:00,
2013-01-03 03:05:00,22.2,18.0,30.26,SW,228,2.0,5.0,84,0.00,,,0.00,weatherlink.com 1.10,2013-01-03 09:05:00,
2013-01-03 03:20:00,22.7,18.0,30.26,SSW,202,0.0,4.0,83,0.00,,,0.00,weatherlink.com 1.10,2013-01-03 09:20:00,
2013-01-03 03:35:00,22.4,18.0,30.25,SW,215,0.0,3.0,83,0.00,,,0.00,weatherlink.com 1.10,2013-01-03 09:35:00,
2013-01-03 03:50:00,22.2,18.0,30.25,SW,231,0.0,3.0,84,0.00,,,0.00,weatherlink.com 1.10,2013-01-03 09:50:00,
2013-01-03 04:05:00,22.1,18.0,30.26,WNW,289,1.0,3.0,84,0.00,,,0.00,weatherlink.com 1.10,2013-01-03 10:05:00,
2013-01-03 04:20:00,22.0,18.0,30.26,WNW,289,0.0,1.0,84,0.00,,,0.00,weatherlink.com 1.10,2013-01-03 10:20:00,
2013-01-03 04:35:00,22.0,18.0,30.27,WNW,289,0.0,2.0,85,0.00,,,0.00,weatherlink.com 1.10,2013-01-03 10:35:00,
2013-01-03 04:50:00,22.0,18.0,30.27,WNW,287,0.0,1.0,85,0.00,,,0.00,weatherlink.com 1.10,2013-01-03 10:50:00,
2013-01-03 05:05:00,21.3,17.0,30.27,WNW,287,0.0,0.0,84,0.00,,,0.00,weatherlink.com 1.10,2013-01-03 11:05:00,
2013-01-03 05:20:00,20.6,17.0,30.28,WNW,287,0.0,2.0,87,0.00,,,0.00,weatherlink.com 1.10,2013-01-03 11:20:00,
2013-01-03 05:35:00,20.2,17.0,30.28,WNW,287,0.0,1.0,87,0.00,,,0.00,weatherlink.com 1.10,2013-01-03 11:35:00,
2013-01-03 05:50:00,20.1,17.0,30.29,WNW,287,0.0,0.0,89,0.00,,,0.00,weatherlink.com 1.10,2013-01-03 11:50:00,
2013-01-03 06:05:00,19.8,17.0,30.30,WNW,287,0.0,2.0,89,0.00,,,0.00,weatherlink.com 1.10,2013-01-03 12:05:00,
2013-01-03 06:20:00,20.2,18.0,30.30,WSW,250,0.0,3.0,90,0.00,,,0.00,weatherlink.com 1.10,2013-01-03 12:20:00,
2013-01-03 06:35:00,21.5,19.0,30.31,WSW,249,0.0,3.0,88,0.00,,,0.00,weatherlink.com 1.10,2013-01-03 12:35:00,
2013-01-03 07:05:00,21.6,18.0,30.31,WSW,239,0.0,2.0,86,0.00,,,0.00,weatherlink.com 1.10,2013-01-03 13:05:00,
2013-01-03 07:20:00,21.3,18.0,30.32,WSW,239,1.0,2.0,87,0.00,,,0.00,weatherlink.com 1.10,2013-01-03 13:20:00,
2013-01-03 07:35:00,22.5,19.0,30.32,SW,234,2.0,3.0,86,0.00,,,0.00,weatherlink.com 1.10,2013-01-03 13:35:00,
2013-01-03 07:50:00,23.4,19.0,30.32,WSW,244,2.0,4.0,84,0.00,,,0.00,weatherlink.com 1.10,2013-01-03 13:50:00,
2013-01-03 08:05:00,24.2,20.0,30.32,West,259,1.0,3.0,83,0.00,,,0.00,weatherlink.com 1.10,2013-01-03 14:05:00,
2013-01-03 08:20:00,25.0,20.0,30.32,WSW,239,3.0,5.0,81,0.00,,,0.00,weatherlink.com 1.10,2013-01-03 14:20:00,
2013-01-03 08:36:00,25.8,20.0,30.33,WSW,255,5.0,6.0,80,0.00,,,0.00,weatherlink.com 1.10,2013-01-03 14:36:00,
2013-01-03 08:51:00,26.7,21.0,30.33,West,274,3.0,7.0,79,0.00,,,0.00,weatherlink.com 1.10,2013-01-03 14:51:00,
2013-01-03 09:06:00,27.5,22.0,30.33,WSW,255,5.0,7.0,78,0.00,,,0.00,weatherlink.com 1.10,2013-01-03 15:06:00,
2013-01-03 09:21:00,28.6,22.0,30.33,WSW,245,6.0,7.0,77,0.00,,,0.00,weatherlink.com 1.10,2013-01-03 15:21:00,
2013-01-03 09:36:00,29.6,23.0,30.34,West,260,4.0,7.0,77,0.00,,,0.00,weatherlink.com 1.10,2013-01-03 15:36:00,
2013-01-03 09:51:00,30.6,24.0,30.35,West,268,1.0,7.0,76,0.00,,,0.00,weatherlink.com 1.10,2013-01-03 15:51:00,
2013-01-03 10:06:00,31.5,24.0,30.36,WSW,257,4.0,7.0,75,0.00,,,0.00,weatherlink.com 1.10,2013-01-03 16:06:00,
2013-01-03 10:21:00,32.1,25.0,30.36,WNW,302,2.0,7.0,75,0.00,,,0.00,weatherlink.com 1.10,2013-01-03 16:21:00,
2013-01-03 10:36:00,32.5,25.0,30.36,NW,312,3.0,7.0,75,0.00,,,0.00,weatherlink.com 1.10,2013-01-03 16:36:00,
2013-01-03 10:51:00,33.2,26.0,30.36,NW,319,4.0,7.0,74,0.00,,,0.00,weatherlink.com 1.10,2013-01-03 16:51:00,
2013-01-03 11:06:00,33.8,26.0,30.35,WNW,299,2.0,7.0,73,0.00,,,0.00,weatherlink.com 1.10,2013-01-03 17:06:00,
2013-01-03 11:21:00,34.2,26.0,30.34,WNW,297,3.0,7.0,73,0.00,,,0.00,weatherlink.com 1.10,2013-01-03 17:21:00,
2013-01-03 11:36:00,34.9,27.0,30.34,NW,321,2.0,7.0,72,0.00,,,0.00,weatherlink.com 1.10,2013-01-03 17:36:00,
2013-01-03 11:51:00,35.5,27.0,30.34,NNW,343,0.0,6.0,72,0.00,,,0.00,weatherlink.com 1.10,2013-01-03 17:51:00,
2013-01-03 12:06:00,35.7,27.0,30.33,NW,314,4.0,9.0,72,0.00,,,0.00,weatherlink.com 1.10,2013-01-03 18:06:00,
2013-01-03 12:21:00,36.2,28.0,30.32,WNW,297,3.0,6.0,72,0.00,,,0.00,weatherlink.com 1.10,2013-01-03 18:21:00,
2013-01-03 12:36:00,36.8,28.0,30.32,NW,304,0.0,6.0,71,0.00,,,0.00,weatherlink.com 1.10,2013-01-03 18:36:00,
2013-01-03 12:51:00,37.4,28.0,30.32,NNW,333,4.0,7.0,69,0.00,,,0.00,weatherlink.com 1.10,2013-01-03 18:51:00,
2013-01-03 13:06:00,37.9,28.0,30.32,WNW,289,7.0,8.0,68,0.00,,,0.00,weatherlink.com 1.10,2013-01-03 19:06:00,
2013-01-03 13:51:00,38.8,29.0,30.33,NW,318,4.0,9.0,68,0.00,,,0.00,weatherlink.com 1.10,2013-01-03 19:51:00,
2013-01-03 14:06:00,38.8,29.0,30.33,NW,320,3.0,9.0,68,0.00,,,0.00,weatherlink.com 1.10,2013-01-03 20:06:00,
2013-01-03 14:21:00,38.8,29.0,30.33,NW,306,1.0,8.0,67,0.00,,,0.00,weatherlink.com 1.10,2013-01-03 20:21:00,
2013-01-03 14:36:00,38.7,29.0,30.34,West,268,3.0,8.0,67,0.00,,,0.00,weatherlink.com 1.10,2013-01-03 20:36:00,
2013-01-03 14:51:00,39.2,29.0,30.34,SW,229,6.0,7.0,66,0.00,,,0.00,weatherlink.com 1.10,2013-01-03 20:51:00,
2013-01-03 15:06:00,39.3,28.0,30.34,WNW,290,2.0,8.0,65,0.00,,,0.00,weatherlink.com 1.10,2013-01-03 21:06:00,
2013-01-03 15:21:00,39.5,28.0,30.34,NW,308,1.0,5.0,64,0.00,,,0.00,weatherlink.com 1.10,2013-01-03 21:21:00,
2013-01-03 15:37:00,40.0,29.0,30.34,West,281,2.0,3.0,64,0.00,,,0.00,weatherlink.com 1.10,2013-01-03 21:37:00,
2013-01-03 15:52:00,40.4,28.0,30.34,West,276,1.0,2.0,62,0.00,,,0.00,weatherlink.com 1.10,2013-01-03 21:52:00,
2013-01-03 16:07:00,39.7,28.0,30.34,West,276,2.0,4.0,63,0.00,,,0.00,weatherlink.com 1.10,2013-01-03 22:07:00,
2013-01-03 16:22:00,39.0,28.0,30.34,West,276,0.0,2.0,65,0.00,,,0.00,weatherlink.com 1.10,2013-01-03 22:22:00,
2013-01-03 16:37:00,38.2,28.0,30.35,West,276,0.0,0.0,68,0.00,,,0.00,weatherlink.com 1.10,2013-01-03 22:37:00,
2013-01-03 16:52:00,37.3,28.0,30.34,West,276,0.0,0.0,70,0.00,,,0.00,weatherlink.com 1.10,2013-01-03 22:52:00,
2013-01-03 17:07:00,36.0,28.0,30.35,West,276,0.0,0.0,73,0.00,,,0.00,weatherlink.com 1.10,2013-01-03 23:07:00,
2013-01-03 17:22:00,34.8,28.0,30.35,West,276,0.0,0.0,75,0.00,,,0.00,weatherlink.com 1.10,2013-01-03 23:22:00,
2013-01-03 17:37:00,33.9,27.0,30.36,West,276,0.0,0.0,77,0.00,,,0.00,weatherlink.com 1.10,2013-01-03 23:37:00,
2013-01-03 17:53:00,32.9,27.0,30.36,West,276,0.0,0.0,79,0.00,,,0.00,weatherlink.com 1.10,2013-01-03 23:53:00,
2013-01-03 18:07:00,32.0,27.0,30.37,West,276,0.0,0.0,81,0.00,,,0.00,weatherlink.com 1.10,2013-01-04 00:07:00,
2013-01-03 18:22:00,31.4,27.0,30.37,West,276,0.0,0.0,83,0.00,,,0.00,weatherlink.com 1.10,2013-01-04 00:22:00,
2013-01-03 18:37:00,31.1,27.0,30.37,West,276,0.0,0.0,84,0.00,,,0.00,weatherlink.com 1.10,2013-01-04 00:37:00,
2013-01-03 18:52:00,30.5,27.0,30.37,West,276,0.0,0.0,85,0.00,,,0.00,weatherlink.com 1.10,2013-01-04 00:52:00,
2013-01-03 19:07:00,30.0,26.0,30.38,West,276,0.0,0.0,86,0.00,,,0.00,weatherlink.com 1.10,2013-01-04 01:07:00,
2013-01-03 19:22:00,29.2,26.0,30.38,West,276,0.0,0.0,87,0.00,,,0.00,weatherlink.com 1.10,2013-01-04 01:22:00,
2013-01-03 19:37:00,28.9,26.0,30.38,West,276,0.0,1.0,89,0.00,,,0.00,weatherlink.com 1.10,2013-01-04 01:37:00,
2013-01-03 19:52:00,28.8,26.0,30.39,West,276,0.0,0.0,89,0.00,,,0.00,weatherlink.com 1.10,2013-01-04 01:52:00,
2013-01-03 20:07:00,28.4,26.0,30.39,West,276,0.0,0.0,89,0.00,,,0.00,weatherlink.com 1.10,2013-01-04 02:07:00,
2013-01-03 20:22:00,28.7,26.0,30.39,SW,224,1.0,4.0,90,0.00,,,0.00,weatherlink.com 1.10,2013-01-04 02:22:00,
2013-01-03 20:37:00,29.4,26.0,30.39,SW,217,1.0,3.0,88,0.00,,,0.00,weatherlink.com 1.10,2013-01-04 02:37:00,
2013-01-03 20:52:00,29.3,26.0,30.40,SW,217,0.0,2.0,88,0.00,,,0.00,weatherlink.com 1.10,2013-01-04 02:52:00,
2013-01-03 21:07:00,29.4,26.0,30.40,SW,217,0.0,2.0,88,0.00,,,0.00,weatherlink.com 1.10,2013-01-04 03:07:00,
2013-01-03 21:22:00,29.1,26.0,30.41,SW,217,0.0,1.0,87,0.00,,,0.00,weatherlink.com 1.10,2013-01-04 03:22:00,
2013-01-03 21:37:00,28.9,26.0,30.41,SW,217,0.0,1.0,88,0.00,,,0.00,weatherlink.com 1.10,2013-01-04 03:37:00,
2013-01-03 21:52:00,28.4,25.0,30.41,SW,217,0.0,0.0,88,0.00,,,0.00,weatherlink.com 1.10,2013-01-04 03:52:00,
2013-01-03 22:07:00,27.5,24.0,30.41,SW,217,0.0,0.0,88,0.00,,,0.00,weatherlink.com 1.10,2013-01-04 04:07:00,
2013-01-03 22:22:00,27.0,25.0,30.41,SW,217,0.0,0.0,90,0.00,,,0.00,weatherlink.com 1.10,2013-01-04 04:22:00,
2013-01-03 22:52:00,27.0,25.0,30.41,SW,217,0.0,0.0,91,0.00,,,0.00,weatherlink.com 1.10,2013-01-04 04:52:00,
2013-01-03 23:07:00,26.7,25.0,30.41,SW,217,0.0,0.0,91,0.00,,,0.00,weatherlink.com 1.10,2013-01-04 05:07:00,
2013-01-03 23:22:00,26.4,24.0,30.40,SW,217,0.0,0.0,91,0.00,,,0.00,weatherlink.com 1.10,2013-01-04 05:22:00,
2013-01-03 23:37:00,25.9,24.0,30.40,SW,217,0.0,0.0,91,0.00,,,0.00,weatherlink.com 1.10,2013-01-04 05:37:00,
2013-01-03 23:52:00,25.2,23.0,30.39,SW,217,0.0,0.0,91,0.00,,,0.00,weatherlink.com 1.10,2013-01-04 05:52:00,